createdAt,value
2022-11-16T00:00:21.215Z,54.19
2022-11-16T00:01:26.691Z,54.03
2022-11-16T00:02:29.428Z,53.66
2022-11-16T00:03:33.459Z,53.87
2022-11-16T00:04:36.239Z,53.70
2022-11-16T00:05:41.154Z,53.65
2022-11-16T00:06:43.537Z,53.49
2022-11-16T00:07:47.062Z,53.82
2022-11-16T00:09:06.266Z,53.87
2022-11-16T00:10:11.395Z,54.08
2022-11-16T00:11:15.930Z,53.73
2022-11-16T00:12:19.286Z,54.10
2022-11-16T00:13:21.653Z,54.02
2022-11-16T00:14:27.198Z,54.20
2022-11-16T00:15:29.522Z,54.44
2022-11-16T00:16:33.353Z,53.95
2022-11-16T00:17:35.672Z,54.33
2022-11-16T00:18:39.342Z,54.44
2022-11-16T00:19:41.657Z,54.20
2022-11-16T00:20:46.630Z,54.59
2022-11-16T00:21:48.892Z,54.33
2022-11-16T00:22:52.345Z,54.41
2022-11-16T00:23:55.101Z,54.85
2022-11-16T00:24:58.450Z,54.23
2022-11-16T00:26:05.251Z,54.82
2022-11-16T00:27:08.599Z,54.46
2022-11-16T00:28:11.504Z,54.59
2022-11-16T00:29:16.328Z,54.39
2022-11-16T00:30:18.784Z,54.45
2022-11-16T00:31:23.303Z,54.08
2022-11-16T00:32:26.135Z,54.93
2022-11-16T00:33:29.872Z,55.18
2022-11-16T00:34:32.128Z,55.00
2022-11-16T00:35:40.512Z,54.89
2022-11-16T00:36:44.302Z,54.58
2022-11-16T00:37:47.870Z,54.64
2022-11-16T00:38:53.062Z,54.53
2022-11-16T00:39:56.484Z,54.71
2022-11-16T00:40:58.845Z,54.44
2022-11-16T00:42:02.248Z,54.71
2022-11-16T00:43:04.919Z,54.67
2022-11-16T00:44:08.816Z,54.70
2022-11-16T00:45:11.530Z,54.86
2022-11-16T00:46:14.963Z,54.89
2022-11-16T00:47:17.408Z,54.57
2022-11-16T00:48:21.408Z,55.24
2022-11-16T00:49:23.701Z,54.88
2022-11-16T00:50:26.976Z,55.34
2022-11-16T00:51:29.346Z,54.57
2022-11-16T00:52:34.164Z,54.92
2022-11-16T00:53:36.925Z,54.72
2022-11-16T00:54:40.258Z,55.24
2022-11-16T00:55:44.407Z,54.85
2022-11-16T00:56:47.697Z,54.70
2022-11-16T00:57:50.187Z,54.79
2022-11-16T00:58:53.443Z,54.54
2022-11-16T00:59:55.653Z,55.13
2022-11-16T01:01:04.020Z,54.96
2022-11-16T01:02:07.318Z,55.05
2022-11-16T01:03:10.945Z,55.20
2022-11-16T01:04:13.362Z,55.24
2022-11-16T01:05:16.770Z,55.06
2022-11-16T01:06:19.203Z,56.09
2022-11-16T01:07:22.789Z,58.83
2022-11-16T01:08:27.776Z,58.78
2022-11-16T01:09:30.085Z,59.09
2022-11-16T01:10:34.269Z,59.22
2022-11-16T01:11:56.153Z,59.09
2022-11-16T01:12:58.462Z,60.14
2022-11-16T01:14:04.556Z,60.75
2022-11-16T01:15:09.176Z,61.74
2022-11-16T01:16:15.283Z,61.47
2022-11-16T01:17:17.783Z,60.71
2022-11-16T01:18:21.300Z,59.33
2022-11-16T01:19:23.600Z,60.57
2022-11-16T01:20:28.816Z,60.61
2022-11-16T01:21:31.358Z,60.20
2022-11-16T01:22:37.474Z,59.46
2022-11-16T01:23:41.517Z,59.27
2022-11-16T01:24:47.034Z,59.45
2022-11-16T01:25:56.814Z,59.52
2022-11-16T01:27:00.812Z,60.10
2022-11-16T01:28:03.320Z,58.56
2022-11-16T01:29:07.207Z,58.44
2022-11-16T01:30:13.115Z,58.04
2022-11-16T01:31:17.228Z,58.04
2022-11-16T01:32:19.892Z,57.84
2022-11-16T01:33:24.058Z,57.82
2022-11-16T01:34:26.419Z,58.06
2022-11-16T01:35:29.888Z,58.42
2022-11-16T01:36:32.470Z,58.62
2022-11-16T01:37:35.847Z,57.40
2022-11-16T01:38:38.132Z,58.16
2022-11-16T01:39:42.997Z,58.12
2022-11-16T01:40:45.283Z,58.11
2022-11-16T01:41:48.726Z,58.20
2022-11-16T01:42:51.138Z,58.48
2022-11-16T01:43:58.305Z,58.92
2022-11-16T01:45:05.474Z,59.42
2022-11-16T01:46:08.871Z,59.40
2022-11-16T01:47:14.663Z,59.03
2022-11-16T01:48:23.463Z,59.06
2022-11-16T01:49:28.926Z,58.87
2022-11-16T01:50:32.432Z,58.23
2022-11-16T01:51:35.540Z,58.54
2022-11-16T01:52:42.761Z,57.95
2022-11-16T01:53:45.116Z,57.85
2022-11-16T01:54:52.763Z,57.71
2022-11-16T01:55:55.205Z,57.75
2022-11-16T01:57:01.971Z,57.68
2022-11-16T01:58:04.958Z,57.25
2022-11-16T01:59:08.854Z,57.34
2022-11-16T02:00:13.422Z,57.14
2022-11-16T02:01:17.204Z,57.02
2022-11-16T02:02:19.947Z,56.59
2022-11-16T02:03:23.432Z,56.65
2022-11-16T02:04:25.896Z,56.58
2022-11-16T02:05:42.841Z,57.00
2022-11-16T02:07:01.523Z,56.58
2022-11-16T02:08:50.341Z,57.25
2022-11-16T02:10:08.570Z,57.57
2022-11-16T02:11:32.225Z,57.32
2022-11-16T02:13:11.556Z,57.47
2022-11-16T02:14:28.634Z,57.98
2022-11-16T02:15:39.322Z,57.83
2022-11-16T02:17:00.284Z,58.05
2022-11-16T02:18:16.295Z,58.35
2022-11-16T02:19:52.180Z,57.88
2022-11-16T02:21:05.024Z,57.84
2022-11-16T02:22:16.631Z,57.90
2022-11-16T02:23:46.412Z,57.35
2022-11-16T02:25:00.468Z,57.75
2022-11-16T02:26:17.929Z,57.73
2022-11-16T02:28:05.571Z,57.84
2022-11-16T02:29:21.235Z,57.35
2022-11-16T02:30:25.818Z,57.24
2022-11-16T02:31:33.355Z,57.10
2022-11-16T02:32:41.344Z,57.59
2022-11-16T02:33:47.137Z,58.47
2022-11-16T02:34:54.140Z,58.34
2022-11-16T02:35:59.419Z,58.57
2022-11-16T02:37:06.598Z,58.38
2022-11-16T02:38:14.458Z,58.12
2022-11-16T02:39:21.935Z,57.73
2022-11-16T02:40:27.806Z,57.45
2022-11-16T02:41:35.212Z,57.89
2022-11-16T02:42:44.685Z,58.28
2022-11-16T02:43:51.248Z,58.16
2022-11-16T02:44:58.218Z,58.36
2022-11-16T02:46:06.479Z,58.31
2022-11-16T02:47:16.543Z,58.53
2022-11-16T02:48:29.725Z,58.52
2022-11-16T02:49:36.851Z,59.04
2022-11-16T02:50:39.772Z,58.65
2022-11-16T02:51:44.742Z,58.99
2022-11-16T02:52:47.164Z,58.90
2022-11-16T02:54:02.032Z,58.67
2022-11-16T02:55:06.216Z,58.88
2022-11-16T02:56:12.240Z,58.67
2022-11-16T02:57:40.850Z,58.52
2022-11-16T02:58:44.297Z,58.57
2022-11-16T02:59:50.832Z,58.59
2022-11-16T03:01:02.615Z,58.54
2022-11-16T03:02:24.396Z,58.73
2022-11-16T03:03:34.153Z,58.88
2022-11-16T03:04:42.383Z,58.85
2022-11-16T03:05:49.863Z,58.52
2022-11-16T03:06:54.122Z,58.55
2022-11-16T03:08:08.910Z,58.82
2022-11-16T03:09:15.068Z,59.13
2022-11-16T03:10:35.422Z,59.09
2022-11-16T03:12:01.411Z,58.98
2022-11-16T03:13:05.887Z,59.79
2022-11-16T03:14:13.471Z,59.22
2022-11-16T03:15:15.939Z,59.27
2022-11-16T03:16:24.038Z,59.70
2022-11-16T03:17:29.557Z,59.38
2022-11-16T03:18:34.362Z,59.84
2022-11-16T03:19:42.076Z,60.15
2022-11-16T03:20:45.772Z,59.62
2022-11-16T03:21:52.386Z,60.13
2022-11-16T03:23:00.335Z,59.96
2022-11-16T03:24:03.350Z,60.00
2022-11-16T03:25:08.836Z,59.93
2022-11-16T03:26:14.491Z,59.47
2022-11-16T03:27:26.052Z,59.29
2022-11-16T03:28:36.202Z,59.55
2022-11-16T03:29:43.871Z,59.42
2022-11-16T03:30:52.866Z,59.35
2022-11-16T03:32:02.829Z,59.14
2022-11-16T03:33:12.831Z,58.94
2022-11-16T03:34:20.109Z,59.49
2022-11-16T03:35:27.898Z,59.76
2022-11-16T03:36:34.031Z,59.60
2022-11-16T03:37:38.559Z,60.11
2022-11-16T03:38:42.721Z,60.08
2022-11-16T03:39:47.126Z,59.90
2022-11-16T03:40:51.335Z,60.32
2022-11-16T03:41:56.163Z,60.32
2022-11-16T03:43:01.477Z,60.06
2022-11-16T03:44:06.514Z,60.53
2022-11-16T03:45:09.792Z,61.96
2022-11-16T03:46:13.780Z,63.74
2022-11-16T03:47:17.462Z,63.55
2022-11-16T03:48:20.854Z,63.80
2022-11-16T03:49:23.996Z,63.34
2022-11-16T03:50:27.197Z,66.44
2022-11-16T03:51:29.364Z,65.75
2022-11-16T03:52:32.873Z,65.54
2022-11-16T03:53:35.812Z,65.42
2022-11-16T03:54:39.191Z,65.06
2022-11-16T03:55:45.666Z,64.84
2022-11-16T03:56:51.942Z,66.36
2022-11-16T03:57:54.259Z,66.34
2022-11-16T03:58:58.083Z,65.02
2022-11-16T04:00:00.466Z,66.76
2022-11-16T04:01:04.720Z,66.38
2022-11-16T04:02:07.397Z,65.65
2022-11-16T04:03:12.381Z,64.49
2022-11-16T04:04:29.529Z,65.27
2022-11-16T04:05:50.383Z,67.35
2022-11-16T04:07:11.170Z,67.26
2022-11-16T04:08:33.983Z,69.31
2022-11-16T04:09:55.056Z,68.04
2022-11-16T04:11:15.954Z,66.22
2022-11-16T04:12:36.949Z,68.00
2022-11-16T04:13:58.052Z,66.54
2022-11-16T04:15:19.295Z,68.41
2022-11-16T04:16:51.721Z,69.40
2022-11-16T04:18:20.971Z,69.63
2022-11-16T04:19:43.708Z,67.14
2022-11-16T04:21:04.614Z,66.94
2022-11-16T04:22:32.240Z,69.67
2022-11-16T04:24:07.409Z,69.48
2022-11-16T04:25:15.745Z,67.40
2022-11-16T04:26:18.103Z,69.20
2022-11-16T04:27:42.728Z,70.23
2022-11-16T04:28:44.970Z,69.89
2022-11-16T04:29:48.842Z,68.23
2022-11-16T04:31:11.946Z,69.50
2022-11-16T04:32:33.241Z,69.87
2022-11-16T04:33:54.233Z,69.67
2022-11-16T04:35:16.570Z,68.55
2022-11-16T04:36:37.396Z,69.10
2022-11-16T04:37:53.735Z,70.24
2022-11-16T04:38:56.009Z,69.83
2022-11-16T04:39:59.356Z,70.22
2022-11-16T04:41:02.123Z,68.66
2022-11-16T04:42:17.401Z,70.27
2022-11-16T04:43:20.825Z,69.74
2022-11-16T04:44:29.760Z,69.27
2022-11-16T04:45:51.181Z,69.42
2022-11-16T04:47:08.674Z,68.82
2022-11-16T04:48:13.202Z,68.93
2022-11-16T04:49:15.449Z,69.62
2022-11-16T04:50:21.600Z,69.46
2022-11-16T04:51:24.034Z,69.16
2022-11-16T04:52:27.356Z,70.17
2022-11-16T04:53:29.586Z,68.83
2022-11-16T04:54:32.928Z,69.11
2022-11-16T04:55:35.873Z,69.66
2022-11-16T04:56:39.255Z,69.33
2022-11-16T04:57:41.510Z,70.06
2022-11-16T04:58:44.812Z,70.43
2022-11-16T04:59:47.150Z,71.50
2022-11-16T05:00:50.598Z,70.45
2022-11-16T05:02:10.924Z,70.98
2022-11-16T05:03:14.216Z,70.64
2022-11-16T05:04:16.571Z,70.80
2022-11-16T05:05:21.646Z,71.18
2022-11-16T05:06:24.318Z,71.70
2022-11-16T05:07:27.934Z,70.77
2022-11-16T05:08:31.695Z,71.95
2022-11-16T05:09:34.273Z,71.96
2022-11-16T05:10:37.766Z,71.47
2022-11-16T05:11:40.216Z,70.37
2022-11-16T05:12:43.528Z,71.60
2022-11-16T05:13:45.940Z,71.49
2022-11-16T05:14:49.305Z,71.59
2022-11-16T05:15:51.669Z,71.54
2022-11-16T05:16:55.158Z,71.57
2022-11-16T05:17:58.364Z,70.88
2022-11-16T05:19:19.229Z,70.75
2022-11-16T05:20:41.256Z,70.82
2022-11-16T05:21:44.631Z,69.26
2022-11-16T05:22:53.274Z,70.25
2022-11-16T05:24:14.144Z,70.23
2022-11-16T05:25:17.369Z,70.49
2022-11-16T05:26:19.735Z,71.13
2022-11-16T05:27:24.592Z,70.21
2022-11-16T05:28:26.872Z,69.84
2022-11-16T05:29:30.302Z,69.79
2022-11-16T05:30:33.545Z,69.88
2022-11-16T05:31:40.296Z,69.66
2022-11-16T05:32:43.834Z,69.24
2022-11-16T05:33:46.022Z,68.66
2022-11-16T05:34:49.642Z,69.56
2022-11-16T05:35:53.370Z,69.74
2022-11-16T05:36:57.525Z,69.90
2022-11-16T05:37:59.807Z,69.86
2022-11-16T05:39:03.309Z,69.75
2022-11-16T05:40:07.789Z,69.78
2022-11-16T05:41:10.337Z,69.10
2022-11-16T05:42:13.686Z,69.67
2022-11-16T05:43:16.295Z,69.59
2022-11-16T05:44:19.601Z,69.30
2022-11-16T05:45:21.910Z,69.48
2022-11-16T05:46:26.088Z,68.46
2022-11-16T05:47:29.552Z,68.60
2022-11-16T05:48:32.162Z,68.68
2022-11-16T05:49:35.838Z,68.90
2022-11-16T05:50:42.545Z,67.79
2022-11-16T05:51:49.416Z,67.72
2022-11-16T05:52:51.722Z,68.26
2022-11-16T05:53:55.316Z,68.21
2022-11-16T05:54:58.752Z,67.76
2022-11-16T05:56:01.181Z,67.49
2022-11-16T05:57:04.752Z,67.52
2022-11-16T05:58:07.223Z,67.83
2022-11-16T05:59:15.272Z,68.03
2022-11-16T06:00:19.707Z,67.85
2022-11-16T06:01:23.649Z,67.56
2022-11-16T06:02:25.991Z,67.37
2022-11-16T06:03:30.340Z,67.18
2022-11-16T06:04:34.775Z,67.05
2022-11-16T06:05:40.447Z,66.60
2022-11-16T06:06:44.371Z,66.55
2022-11-16T06:07:48.089Z,67.19
2022-11-16T06:08:51.364Z,66.97
2022-11-16T06:09:53.633Z,66.60
2022-11-16T06:10:57.466Z,67.42
2022-11-16T06:12:01.590Z,67.19
2022-11-16T06:13:04.255Z,66.60
2022-11-16T06:14:07.990Z,66.88
2022-11-16T06:15:10.499Z,66.77
2022-11-16T06:16:14.159Z,67.19
2022-11-16T06:17:17.440Z,66.98
2022-11-16T06:18:20.009Z,66.45
2022-11-16T06:19:26.011Z,66.75
2022-11-16T06:20:32.588Z,67.29
2022-11-16T06:21:36.052Z,66.91
2022-11-16T06:22:39.715Z,68.05
2022-11-16T06:23:43.660Z,67.54
2022-11-16T06:24:47.236Z,67.88
2022-11-16T06:25:54.713Z,68.08
2022-11-16T06:26:58.002Z,68.48
2022-11-16T06:28:04.016Z,68.68
2022-11-16T06:29:09.945Z,68.78
2022-11-16T06:30:12.438Z,69.15
2022-11-16T06:31:16.309Z,69.07
2022-11-16T06:32:18.618Z,68.47
2022-11-16T06:33:22.153Z,67.68
2022-11-16T06:34:24.860Z,67.79
2022-11-16T06:35:28.143Z,67.25
2022-11-16T06:36:31.632Z,66.90
2022-11-16T06:37:35.032Z,67.18
2022-11-16T06:38:38.613Z,67.85
2022-11-16T06:39:43.177Z,66.99
2022-11-16T06:40:47.956Z,66.64
2022-11-16T06:41:51.275Z,66.99
2022-11-16T06:42:53.739Z,67.04
2022-11-16T06:43:57.027Z,66.79
2022-11-16T06:44:59.435Z,66.87
2022-11-16T06:46:02.832Z,67.58
2022-11-16T06:47:05.294Z,67.53
2022-11-16T06:48:09.068Z,67.96
2022-11-16T06:49:12.570Z,67.69
2022-11-16T06:50:14.982Z,67.57
2022-11-16T06:51:18.228Z,67.88
2022-11-16T06:52:20.451Z,67.40
2022-11-16T06:53:28.951Z,66.98
2022-11-16T06:54:32.999Z,67.41
2022-11-16T06:55:36.634Z,67.59
2022-11-16T06:56:39.958Z,66.67
2022-11-16T06:57:42.389Z,67.23
2022-11-16T06:58:45.657Z,67.70
2022-11-16T06:59:48.136Z,67.21
2022-11-16T07:00:51.414Z,67.39
2022-11-16T07:01:53.836Z,67.11
2022-11-16T07:02:57.185Z,66.73
2022-11-16T07:03:59.621Z,67.46
2022-11-16T07:05:03.964Z,66.82
2022-11-16T07:06:07.984Z,67.14
2022-11-16T07:07:12.129Z,67.00
2022-11-16T07:08:15.447Z,66.97
2022-11-16T07:09:17.740Z,67.19
2022-11-16T07:10:21.519Z,68.08
2022-11-16T07:11:26.298Z,67.20
2022-11-16T07:12:28.667Z,67.76
2022-11-16T07:13:33.632Z,67.33
2022-11-16T07:14:35.931Z,67.80
2022-11-16T07:15:39.447Z,67.45
2022-11-16T07:16:41.721Z,66.96
2022-11-16T07:17:44.915Z,67.56
2022-11-16T07:18:48.342Z,67.58
2022-11-16T07:19:50.526Z,67.20
2022-11-16T07:20:53.960Z,66.86
2022-11-16T07:21:56.153Z,66.84
2022-11-16T07:23:01.599Z,66.05
2022-11-16T07:24:04.208Z,66.62
2022-11-16T07:25:08.891Z,66.83
2022-11-16T07:26:11.976Z,65.88
2022-11-16T07:27:16.566Z,66.18
2022-11-16T07:28:19.854Z,66.19
2022-11-16T07:29:22.725Z,65.60
2022-11-16T07:30:26.164Z,65.22
2022-11-16T07:31:28.733Z,65.50
2022-11-16T07:32:32.147Z,65.15
2022-11-16T07:33:35.817Z,65.97
2022-11-16T07:34:38.245Z,65.65
2022-11-16T07:35:41.729Z,65.98
2022-11-16T07:36:45.171Z,65.57
2022-11-16T07:37:48.661Z,65.72
2022-11-16T07:38:50.868Z,65.66
2022-11-16T07:39:54.255Z,65.69
2022-11-16T07:41:01.745Z,65.82
2022-11-16T07:42:04.201Z,65.47
2022-11-16T07:43:09.207Z,65.32
2022-11-16T07:44:12.366Z,65.06
2022-11-16T07:45:15.933Z,65.06
2022-11-16T07:47:44.647Z,64.70
2022-11-16T07:48:47.192Z,64.28
2022-11-16T07:49:50.562Z,64.09
2022-11-16T07:50:52.826Z,64.20
2022-11-16T07:51:56.092Z,64.05
2022-11-16T07:52:58.233Z,64.47
2022-11-16T07:54:01.673Z,64.62
2022-11-16T07:55:06.057Z,64.39
2022-11-16T07:56:09.721Z,63.77
2022-11-16T07:57:12.888Z,63.59
2022-11-16T07:58:16.545Z,63.20
2022-11-16T07:59:19.897Z,63.09
2022-11-16T08:00:22.636Z,63.46
2022-11-16T08:01:25.990Z,63.63
2022-11-16T08:02:29.544Z,63.48
2022-11-16T08:03:32.316Z,63.37
2022-11-16T08:04:35.757Z,63.84
2022-11-16T08:05:38.297Z,63.51
2022-11-16T08:06:41.899Z,64.02
2022-11-16T08:07:45.224Z,63.36
2022-11-16T08:08:47.453Z,63.16
2022-11-16T08:09:51.243Z,62.96
2022-11-16T08:10:59.816Z,62.80
2022-11-16T08:12:03.163Z,62.42
2022-11-16T08:13:06.026Z,61.98
2022-11-16T08:14:12.870Z,62.27
2022-11-16T08:15:15.268Z,61.64
2022-11-16T08:16:20.021Z,61.37
2022-11-16T08:17:22.326Z,61.32
2022-11-16T08:18:25.885Z,61.33
2022-11-16T08:19:29.270Z,61.40
2022-11-16T08:20:31.668Z,61.68
2022-11-16T08:21:35.222Z,61.89
2022-11-16T08:22:37.624Z,62.29
2022-11-16T08:23:42.059Z,62.61
2022-11-16T08:24:44.363Z,62.20
2022-11-16T08:25:47.654Z,62.73
2022-11-16T08:26:50.769Z,62.16
2022-11-16T08:27:54.427Z,62.06
2022-11-16T08:28:57.370Z,62.61
2022-11-16T08:30:03.398Z,61.86
2022-11-16T08:31:10.164Z,61.84
2022-11-16T08:32:14.021Z,61.61
2022-11-16T08:33:17.980Z,61.37
2022-11-16T08:34:21.561Z,61.55
2022-11-16T08:35:24.302Z,61.74
2022-11-16T08:36:27.834Z,62.12
2022-11-16T08:37:32.124Z,62.99
2022-11-16T08:38:35.687Z,62.34
2022-11-16T08:39:39.141Z,62.14
2022-11-16T08:40:41.346Z,61.66
2022-11-16T08:41:44.611Z,62.09
2022-11-16T08:42:46.862Z,62.52
2022-11-16T08:43:50.812Z,62.18
2022-11-16T08:44:53.282Z,61.97
2022-11-16T08:45:59.517Z,62.08
2022-11-16T08:47:02.803Z,63.04
2022-11-16T08:48:05.822Z,62.03
2022-11-16T08:49:09.043Z,62.06
2022-11-16T08:50:12.227Z,62.52
2022-11-16T08:51:18.630Z,62.48
2022-11-16T08:52:22.835Z,61.55
2022-11-16T08:53:25.144Z,61.19
2022-11-16T08:54:29.918Z,61.33
2022-11-16T08:55:32.992Z,61.12
2022-11-16T08:56:36.320Z,60.75
2022-11-16T08:57:38.467Z,59.71
2022-11-16T08:58:43.686Z,59.55
2022-11-16T08:59:46.864Z,59.52
2022-11-16T09:00:49.048Z,59.48
2022-11-16T09:01:53.744Z,60.07
2022-11-16T09:02:56.710Z,59.87
2022-11-16T09:03:59.999Z,60.40
2022-11-16T09:05:02.265Z,60.19
2022-11-16T09:06:05.855Z,60.60
2022-11-16T09:07:09.309Z,60.64
2022-11-16T09:08:11.758Z,59.90
2022-11-16T09:09:14.972Z,59.89
2022-11-16T09:10:19.217Z,59.10
2022-11-16T09:11:24.293Z,59.00
2022-11-16T09:12:27.547Z,58.79
2022-11-16T09:13:29.729Z,58.63
2022-11-16T09:14:32.960Z,58.93
2022-11-16T09:15:36.246Z,58.59
2022-11-16T09:16:40.524Z,58.83
2022-11-16T09:17:45.504Z,58.56
2022-11-16T09:18:49.124Z,58.29
2022-11-16T09:19:53.350Z,58.66
2022-11-16T09:20:57.648Z,57.45
2022-11-16T09:22:01.316Z,57.05
2022-11-16T09:23:03.560Z,55.60
2022-11-16T09:24:07.568Z,56.80
2022-11-16T09:25:11.416Z,57.17
2022-11-16T09:26:15.205Z,57.17
2022-11-16T09:27:17.570Z,55.62
2022-11-16T09:28:22.032Z,55.70
2022-11-16T09:29:24.209Z,56.21
2022-11-16T09:30:27.479Z,55.99
2022-11-16T09:31:34.811Z,55.57
2022-11-16T09:32:37.362Z,55.15
2022-11-16T09:33:42.014Z,55.08
2022-11-16T09:34:44.481Z,55.23
2022-11-16T09:35:48.311Z,53.70
2022-11-16T09:36:51.752Z,52.05
2022-11-16T09:37:54.081Z,53.15
2022-11-16T09:40:21.896Z,52.85
2022-11-16T09:41:40.642Z,51.89
2022-11-16T09:42:59.232Z,52.93
2022-11-16T09:44:14.089Z,51.45
2022-11-16T09:45:23.363Z,51.06
2022-11-16T09:46:32.741Z,51.10
2022-11-16T09:47:46.372Z,50.94
2022-11-16T09:48:51.131Z,51.46
2022-11-16T09:50:01.795Z,51.21
2022-11-16T09:51:10.143Z,52.06
2022-11-16T09:52:21.335Z,52.56
2022-11-16T09:53:31.963Z,51.25
2022-11-16T09:54:39.301Z,51.64
2022-11-16T09:55:47.519Z,52.02
2022-11-16T09:56:55.137Z,51.07
2022-11-16T09:58:02.063Z,51.75
2022-11-16T09:59:17.810Z,51.35
2022-11-16T10:00:24.083Z,50.82
2022-11-16T10:01:31.247Z,50.05
2022-11-16T10:02:39.070Z,50.36
2022-11-16T10:03:46.601Z,50.54
2022-11-16T10:04:59.037Z,49.97
2022-11-16T10:06:05.632Z,49.17
2022-11-16T10:07:15.733Z,49.47
2022-11-16T10:08:26.287Z,48.90
2022-11-16T10:09:31.623Z,49.28
2022-11-16T10:10:38.670Z,49.45
2022-11-16T10:11:53.241Z,49.25
2022-11-16T10:13:03.469Z,49.33
2022-11-16T10:14:21.053Z,50.29
2022-11-16T10:15:39.935Z,50.48
2022-11-16T10:16:50.036Z,49.90
2022-11-16T10:18:13.353Z,50.13
2022-11-16T10:19:29.024Z,51.37
2022-11-16T10:21:06.017Z,52.25
2022-11-16T10:22:20.691Z,51.82
2022-11-16T10:23:33.426Z,51.51
2022-11-16T10:24:47.893Z,50.94
2022-11-16T10:25:54.337Z,50.97
2022-11-16T10:27:10.040Z,51.50
2022-11-16T10:28:47.987Z,52.12
2022-11-16T10:30:03.718Z,52.43
2022-11-16T10:31:17.474Z,51.42
2022-11-16T10:32:28.332Z,52.12
2022-11-16T10:33:37.241Z,50.98
2022-11-16T10:34:51.022Z,51.22
2022-11-16T10:35:56.112Z,50.84
2022-11-16T10:37:04.012Z,50.23
2022-11-16T10:38:14.184Z,50.52
2022-11-16T10:39:19.570Z,50.64
2022-11-16T10:40:25.604Z,50.49
2022-11-16T10:41:35.716Z,50.54
2022-11-16T10:42:39.700Z,50.81
2022-11-16T10:43:43.700Z,49.01
2022-11-16T10:44:50.745Z,48.49
2022-11-16T10:46:00.456Z,49.38
2022-11-16T10:47:07.271Z,49.53
2022-11-16T10:48:28.061Z,49.12
2022-11-16T10:49:40.185Z,49.57
2022-11-16T10:50:46.815Z,50.36
2022-11-16T10:51:51.592Z,49.51
2022-11-16T10:52:54.969Z,49.91
2022-11-16T10:53:58.299Z,48.92
2022-11-16T10:55:00.444Z,49.61
2022-11-16T10:56:18.821Z,48.80
2022-11-16T10:57:23.862Z,49.07
2022-11-16T10:58:27.500Z,50.06
2022-11-16T10:59:40.664Z,49.80
2022-11-16T11:00:52.095Z,49.76
2022-11-16T11:01:54.390Z,50.03
2022-11-16T11:02:57.845Z,50.24
2022-11-16T11:04:16.380Z,50.49
2022-11-16T11:05:21.416Z,50.32
2022-11-16T11:06:26.123Z,50.40
2022-11-16T11:07:34.296Z,50.44
2022-11-16T11:08:37.636Z,50.43
2022-11-16T11:09:43.384Z,50.98
2022-11-16T11:11:01.834Z,51.00
2022-11-16T11:12:32.346Z,51.50
2022-11-16T11:13:35.820Z,50.87
2022-11-16T11:14:39.526Z,51.87
2022-11-16T11:15:43.054Z,51.09
2022-11-16T11:16:46.248Z,51.41
2022-11-16T11:17:50.973Z,51.64
2022-11-16T11:18:54.400Z,50.51
2022-11-16T11:20:01.095Z,50.44
2022-11-16T11:21:15.309Z,49.67
2022-11-16T11:22:17.914Z,49.68
2022-11-16T11:23:26.132Z,49.92
2022-11-16T11:24:43.903Z,50.21
2022-11-16T11:25:54.691Z,50.49
2022-11-16T11:26:59.524Z,49.61
2022-11-16T11:28:09.362Z,50.13
2022-11-16T11:29:27.582Z,49.45
2022-11-16T11:30:30.822Z,49.42
2022-11-16T11:31:40.456Z,50.05
2022-11-16T11:32:42.713Z,49.75
2022-11-16T11:33:51.534Z,49.76
2022-11-16T11:34:56.148Z,49.55
2022-11-16T11:36:07.400Z,50.10
2022-11-16T11:37:16.435Z,49.28
2022-11-16T11:38:20.528Z,49.72
2022-11-16T11:39:36.579Z,49.15
2022-11-16T11:40:38.926Z,49.12
2022-11-16T11:41:45.202Z,48.74
2022-11-16T11:42:57.289Z,49.33
2022-11-16T11:44:05.352Z,48.94
2022-11-16T11:45:14.437Z,49.33
2022-11-16T11:46:35.870Z,49.58
2022-11-16T11:47:58.699Z,50.48
2022-11-16T11:49:07.793Z,50.81
2022-11-16T11:50:16.733Z,50.75
2022-11-16T11:51:25.999Z,50.68
2022-11-16T11:52:35.869Z,50.61
2022-11-16T11:53:51.521Z,50.53
2022-11-16T11:54:56.223Z,49.86
2022-11-16T11:56:01.188Z,49.65
2022-11-16T11:57:04.737Z,49.18
2022-11-16T11:58:14.992Z,49.78
2022-11-16T11:59:23.019Z,50.30
2022-11-16T12:00:26.319Z,50.06
2022-11-16T12:01:53.637Z,50.31
2022-11-16T12:03:40.469Z,50.44
2022-11-16T12:05:21.782Z,50.91
2022-11-16T12:06:31.990Z,50.64
2022-11-16T12:08:09.279Z,50.50
2022-11-16T12:09:32.931Z,51.15
2022-11-16T12:10:46.430Z,50.46
2022-11-16T12:12:02.935Z,51.50
2022-11-16T12:13:25.555Z,51.68
2022-11-16T12:14:49.587Z,51.52
2022-11-16T12:16:06.485Z,50.80
2022-11-16T12:17:17.123Z,52.02
2022-11-16T12:18:38.855Z,52.09
2022-11-16T12:19:59.603Z,51.85
2022-11-16T12:21:13.257Z,52.52
2022-11-16T12:22:34.353Z,51.86
2022-11-16T12:23:48.443Z,51.19
2022-11-16T12:25:03.346Z,50.74
2022-11-16T12:26:14.648Z,50.83
2022-11-16T12:27:27.761Z,50.54
2022-11-16T12:28:46.029Z,51.09
2022-11-16T12:30:02.714Z,51.31
2022-11-16T12:31:21.427Z,51.74
2022-11-16T12:32:39.363Z,52.55
2022-11-16T12:33:52.068Z,52.39
2022-11-16T12:35:06.683Z,52.87
2022-11-16T12:36:22.328Z,52.98
2022-11-16T12:37:32.085Z,53.22
2022-11-16T12:38:52.197Z,53.10
2022-11-16T12:40:13.240Z,54.03
2022-11-16T12:41:42.213Z,54.73
2022-11-16T12:42:54.189Z,53.54
2022-11-16T12:44:02.244Z,54.46
2022-11-16T12:45:33.099Z,54.97
2022-11-16T12:46:47.322Z,54.56
2022-11-16T12:48:09.384Z,54.31
2022-11-16T12:49:35.560Z,53.84
2022-11-16T12:50:46.931Z,53.60
2022-11-16T12:52:01.053Z,53.60
2022-11-16T12:53:23.943Z,53.22
2022-11-16T12:55:11.019Z,54.08
2022-11-16T12:56:20.963Z,53.85
2022-11-16T12:57:33.770Z,51.87
2022-11-16T12:59:03.174Z,52.18
2022-11-16T13:00:11.039Z,52.09
2022-11-16T13:01:22.499Z,52.42
2022-11-16T13:02:40.143Z,53.26
2022-11-16T13:03:48.759Z,53.40
2022-11-16T13:04:58.487Z,52.51
2022-11-16T13:06:05.800Z,53.40
2022-11-16T13:07:15.113Z,53.33
2022-11-16T13:08:32.077Z,54.00
2022-11-16T13:09:39.041Z,53.98
2022-11-16T13:10:45.687Z,53.36
2022-11-16T13:11:52.834Z,53.76
2022-11-16T13:13:29.734Z,54.07
2022-11-16T13:14:29.588Z,53.76
2022-11-16T13:15:35.038Z,54.37
2022-11-16T13:16:38.321Z,53.92
2022-11-16T13:17:42.175Z,54.88
2022-11-16T13:18:45.040Z,54.93
2022-11-16T13:19:59.026Z,55.32
2022-11-16T13:21:06.743Z,53.75
2022-11-16T13:22:19.021Z,53.78
2022-11-16T13:23:29.279Z,53.82
2022-11-16T13:24:44.458Z,53.87
2022-11-16T13:25:53.593Z,53.45
2022-11-16T13:27:05.573Z,53.04
2022-11-16T13:28:20.067Z,51.95
2022-11-16T13:29:31.474Z,52.98
2022-11-16T13:30:42.616Z,52.86
2022-11-16T13:31:55.010Z,52.17
2022-11-16T13:33:19.750Z,52.45
2022-11-16T13:34:27.232Z,52.31
2022-11-16T13:35:29.817Z,52.57
2022-11-16T13:36:46.492Z,52.06
2022-11-16T13:37:49.819Z,53.47
2022-11-16T13:38:54.173Z,53.85
2022-11-16T13:40:28.958Z,54.17
2022-11-16T13:41:34.800Z,53.92
2022-11-16T13:42:44.231Z,53.65
2022-11-16T13:43:51.232Z,54.50
2022-11-16T13:44:55.251Z,53.81
2022-11-16T13:46:00.460Z,53.67
2022-11-16T13:47:05.884Z,54.00
2022-11-16T13:48:18.012Z,54.01
2022-11-16T13:49:33.887Z,53.82
2022-11-16T13:50:39.068Z,55.20
2022-11-16T13:51:52.994Z,54.92
2022-11-16T13:54:48.232Z,54.72
2022-11-16T13:55:57.379Z,54.67
2022-11-16T13:57:03.937Z,54.44
2022-11-16T13:58:07.703Z,54.74
2022-11-16T13:59:17.652Z,54.87
2022-11-16T14:00:26.629Z,54.91
2022-11-16T14:01:59.792Z,55.85
2022-11-16T14:03:28.387Z,56.63
2022-11-16T14:04:50.665Z,56.49
2022-11-16T14:05:53.452Z,56.20
2022-11-16T14:07:00.433Z,55.88
2022-11-16T14:08:52.212Z,55.50
2022-11-16T14:09:54.455Z,55.62
2022-11-16T14:11:02.871Z,56.34
2022-11-16T14:12:38.988Z,56.99
2022-11-16T14:13:45.767Z,58.11
2022-11-16T14:15:13.546Z,58.75
2022-11-16T14:16:46.100Z,60.21
2022-11-16T14:18:10.531Z,61.02
2022-11-16T14:20:05.509Z,61.28
2022-11-16T14:21:17.343Z,61.93
2022-11-16T14:22:42.361Z,61.70
2022-11-16T14:24:05.111Z,62.65
2022-11-16T14:25:18.054Z,62.99
2022-11-16T14:26:26.810Z,63.36
2022-11-16T14:27:36.799Z,63.85
2022-11-16T14:28:53.807Z,63.84
2022-11-16T14:30:04.617Z,63.66
2022-11-16T14:31:24.287Z,63.81
2022-11-16T14:32:28.854Z,63.97
2022-11-16T14:33:36.576Z,64.12
2022-11-16T14:34:44.769Z,64.15
2022-11-16T14:35:52.837Z,64.74
2022-11-16T14:36:56.715Z,65.02
2022-11-16T14:38:00.831Z,64.69
2022-11-16T14:39:17.414Z,64.53
2022-11-16T14:40:20.254Z,64.66
2022-11-16T14:41:26.360Z,64.05